Tropical Cyclones
[Index]
Main Index Home Page Stock Weather Photos Extreme Storms Discussion Storm News and Storm Chasing Reports Tropical Cyclones / Hurricanes / Typhoons Weather Data and Links Wild Fires / Bushfires Weather Observation Techniques Weather Picture Catalogue Tornado Pictures and Reports Stock Video Footage and DVDs for sale
Season 2012-2013 Tropical Cyclone PETA Track Map
Season 2012-2013 Summaries: [BoM-AU] [JTWC-AU] [JTWC-SIO] [JTWC-SPAC] [JTWC-SH]
<<- Previous TC | JTWC 2012-2013 Season | Next TC ->>

click for intensity scale information  Lat/long Grid: Show Hide

 Date Labels: Show Hide

Joint Typhoon Warning Centre Cyclone Data

Name: PETA

21 Jan 2013 06:00 UTC to 26 Jan 2013 12:00 UTC

    date/time    lat    long     hPa   cat  kts
2013-01-21 06   18.5   122.0    1007         20          
2013-01-21 12   18.9   121.4    1007         20          
2013-01-21 18   19.1   120.8    1004         25          
2013-01-22 00   19.4   120.2    1004         25          
2013-01-22 06   19.5   119.5    1000         30          
2013-01-22 12   19.8   118.7    1000         30          
2013-01-22 18   19.9   117.7    1000         30          
2013-01-23 00   20.4   117.6     996         35          
2013-01-23 06   21.1   117.6     996         35          
2013-01-23 12   21.7   117.3    1000         30          
2013-01-23 18   22.0   117.6    1004         25          
2013-01-24 00   22.5   117.5    1007         20          
2013-01-24 06   22.5   117.2    1007         20          
2013-01-24 12   21.9   117.1     998         20          
2013-01-24 18   21.0   115.9    1007         20          
2013-01-25 00   20.1   115.0    1007         20          
2013-01-25 06   19.9   114.4    1007         20          
2013-01-25 12   19.6   113.7    1007         20          
2013-01-25 18   19.3   113.2    1007         20          
2013-01-26 00   19.2   112.5    1007         20          
2013-01-26 06   19.3   111.5    1007         20          
2013-01-26 12   19.2   110.6    1007         20          
Winds are 1-min average.

Tropical cyclone tracks developed by Michael Bath using data from the Joint Typhoon Warning Centre Best Tracks and Google Maps.


[Australian Severe Weather index] [Copyright Notice] [Email Contacts] [Search This Site] [Privacy Policy]
Document: tropical_cyclone_peta.htm Updated: 28 June 2017